EZY21VB LIRF-EGKK
Flight info
| Callsign | EZY21VB |
|---|---|
| Flight time | N/A |
| Altitude | 38000 |
| Route | PODOX DCT TOBGA DCT DOBIM DCT PIGOS DCT BARSO DCT OKTET DCT GIPNO DCT BULOL DCT IDAVO DCT BAGBI DCT SIZZA DCT LAULY DCT BRY DCT CLM DCT KOPOR DCT KESAX DCT KUNAV |
| Aircraft | A320/M-SDE3FGHIRWY/LB1 |
Departure
| Time | N/A |
|---|---|
| Airport | Rome–Fiumicino Leonardo da Vinci International Airport (LIRF) |
Arrival
| Time | 2026-05-05 18:06 |
|---|---|
| Airport | London Gatwick Airport (EGKK) |
| Time | Latitude | Longitude | Altitude | Speed | Heading |
|---|---|---|---|---|---|
| 2026-05-05 17:29 | 48.85971 | 3.00095 | 37842 ft | 457 kts | 329° |
| 2026-05-05 17:29 | 48.88742 | 2.97687 | 37842 ft | 457 kts | 329° |
| 2026-05-05 17:30 | 48.94246 | 2.92862 | 37842 ft | 458 kts | 329° |
| 2026-05-05 17:30 | 48.99764 | 2.88016 | 37840 ft | 458 kts | 329° |
| 2026-05-05 17:31 | 49.05278 | 2.83164 | 37836 ft | 458 kts | 329° |
| 2026-05-05 17:31 | 49.10771 | 2.78331 | 37846 ft | 458 kts | 329° |
| 2026-05-05 17:32 | 49.16297 | 2.73457 | 37844 ft | 459 kts | 329° |
| 2026-05-05 17:32 | 49.21828 | 2.68567 | 37850 ft | 459 kts | 329° |
| 2026-05-05 17:33 | 49.27362 | 2.63659 | 37860 ft | 460 kts | 329° |
| 2026-05-05 17:33 | 49.32857 | 2.58775 | 37860 ft | 460 kts | 329° |
| 2026-05-05 17:34 | 49.38364 | 2.53864 | 37864 ft | 460 kts | 329° |
| 2026-05-05 17:34 | 49.43892 | 2.48902 | 37873 ft | 460 kts | 329° |
| 2026-05-05 17:35 | 49.49426 | 2.43932 | 37875 ft | 461 kts | 329° |
| 2026-05-05 17:35 | 49.54529 | 2.38041 | 37877 ft | 459 kts | 318° |
| 2026-05-05 17:36 | 49.59358 | 2.31611 | 37886 ft | 459 kts | 318° |
| 2026-05-05 17:36 | 49.64196 | 2.25181 | 37882 ft | 459 kts | 318° |
| 2026-05-05 17:37 | 49.68978 | 2.18822 | 37747 ft | 459 kts | 318° |
| 2026-05-05 17:37 | 49.70609 | 2.16648 | 37559 ft | 458 kts | 318° |
| 2026-05-05 17:37 | 49.73799 | 2.12389 | 37194 ft | 457 kts | 318° |
| 2026-05-05 17:37 | 49.76205 | 2.09168 | 36930 ft | 457 kts | 318° |
| 2026-05-05 17:38 | 49.78605 | 2.05945 | 36664 ft | 458 kts | 318° |
| 2026-05-05 17:38 | 49.81013 | 2.02710 | 36403 ft | 458 kts | 318° |
| 2026-05-05 17:38 | 49.83420 | 1.99475 | 36146 ft | 458 kts | 318° |
| 2026-05-05 17:38 | 49.85826 | 1.96236 | 35898 ft | 458 kts | 319° |
| 2026-05-05 17:39 | 49.88237 | 1.92982 | 35251 ft | 461 kts | 319° |
| 2026-05-05 17:39 | 49.90657 | 1.89710 | 34619 ft | 460 kts | 319° |
| 2026-05-05 17:39 | 49.93039 | 1.86488 | 34063 ft | 462 kts | 319° |
| 2026-05-05 17:39 | 49.95495 | 1.83163 | 33402 ft | 472 kts | 319° |
| 2026-05-05 17:40 | 49.97971 | 1.79804 | 32835 ft | 471 kts | 319° |
| 2026-05-05 17:40 | 50.00424 | 1.76468 | 32216 ft | 466 kts | 319° |
| 2026-05-05 17:40 | 50.02851 | 1.73163 | 31619 ft | 462 kts | 319° |
| 2026-05-05 17:40 | 50.05253 | 1.69892 | 31044 ft | 458 kts | 319° |
| 2026-05-05 17:41 | 50.07679 | 1.66585 | 30472 ft | 469 kts | 319° |
| 2026-05-05 17:41 | 50.10135 | 1.63244 | 29899 ft | 470 kts | 319° |
| 2026-05-05 17:41 | 50.12596 | 1.59909 | 29291 ft | 467 kts | 319° |
| 2026-05-05 17:41 | 50.15037 | 1.56607 | 28740 ft | 465 kts | 319° |
| 2026-05-05 17:42 | 50.17441 | 1.53353 | 28210 ft | 461 kts | 319° |
| 2026-05-05 17:42 | 50.19853 | 1.50086 | 27677 ft | 457 kts | 319° |
| 2026-05-05 17:42 | 50.22238 | 1.46843 | 27171 ft | 454 kts | 318° |
| 2026-05-05 17:42 | 50.24607 | 1.43605 | 26668 ft | 452 kts | 318° |
| 2026-05-05 17:43 | 50.26964 | 1.40378 | 26178 ft | 448 kts | 319° |
| 2026-05-05 17:43 | 50.29307 | 1.37167 | 25673 ft | 447 kts | 319° |
| 2026-05-05 17:43 | 50.31628 | 1.33990 | 25144 ft | 441 kts | 319° |
| 2026-05-05 17:43 | 50.33919 | 1.30850 | 24623 ft | 436 kts | 319° |
| 2026-05-05 17:44 | 50.35423 | 1.28784 | 24268 ft | 432 kts | 319° |
| 2026-05-05 17:44 | 50.37671 | 1.25690 | 23736 ft | 429 kts | 319° |
| 2026-05-05 17:44 | 50.39896 | 1.22619 | 23126 ft | 424 kts | 319° |
| 2026-05-05 17:44 | 50.42072 | 1.19604 | 22577 ft | 419 kts | 319° |
| 2026-05-05 17:45 | 50.44249 | 1.16591 | 22042 ft | 415 kts | 319° |
| 2026-05-05 17:45 | 50.46405 | 1.13608 | 21500 ft | 412 kts | 319° |
| 2026-05-05 17:45 | 50.48544 | 1.10652 | 20977 ft | 409 kts | 319° |
| 2026-05-05 17:45 | 50.50670 | 1.07713 | 20453 ft | 406 kts | 319° |
| 2026-05-05 17:46 | 50.52668 | 1.04600 | 19931 ft | 404 kts | 314° |
| 2026-05-05 17:46 | 50.54572 | 1.01379 | 19412 ft | 400 kts | 314° |
| 2026-05-05 17:46 | 50.56463 | 0.98188 | 18898 ft | 397 kts | 314° |
| 2026-05-05 17:46 | 50.58344 | 0.95018 | 18391 ft | 395 kts | 314° |
| 2026-05-05 17:47 | 50.60214 | 0.91873 | 17841 ft | 393 kts | 314° |
| 2026-05-05 17:47 | 50.62054 | 0.88772 | 17354 ft | 390 kts | 314° |
| 2026-05-05 17:47 | 50.63872 | 0.85695 | 16861 ft | 387 kts | 314° |
| 2026-05-05 17:47 | 50.65719 | 0.82560 | 16373 ft | 383 kts | 314° |
| 2026-05-05 17:48 | 50.67497 | 0.79532 | 15988 ft | 380 kts | 313° |
| 2026-05-05 17:48 | 50.69232 | 0.76388 | 15908 ft | 380 kts | 311° |
| 2026-05-05 17:48 | 50.70864 | 0.73232 | 15928 ft | 362 kts | 310° |
| 2026-05-05 17:48 | 50.72387 | 0.70177 | 15840 ft | 348 kts | 309° |
| 2026-05-05 17:49 | 50.73872 | 0.67172 | 15508 ft | 343 kts | 309° |
| 2026-05-05 17:49 | 50.75319 | 0.64262 | 15380 ft | 331 kts | 309° |
| 2026-05-05 17:49 | 50.76734 | 0.61444 | 15161 ft | 324 kts | 310° |
| 2026-05-05 17:49 | 50.78134 | 0.58672 | 14825 ft | 321 kts | 310° |
| 2026-05-05 17:50 | 50.79512 | 0.55953 | 14475 ft | 320 kts | 310° |
| 2026-05-05 17:50 | 50.80900 | 0.53220 | 14127 ft | 318 kts | 310° |
| 2026-05-05 17:50 | 50.82278 | 0.50504 | 13793 ft | 316 kts | 311° |
| 2026-05-05 17:50 | 50.83652 | 0.47799 | 13409 ft | 315 kts | 310° |
| 2026-05-05 17:51 | 50.85018 | 0.45110 | 13065 ft | 312 kts | 310° |
| 2026-05-05 17:51 | 50.86363 | 0.42454 | 12593 ft | 306 kts | 309° |
| 2026-05-05 17:51 | 50.87685 | 0.39837 | 11914 ft | 303 kts | 309° |
| 2026-05-05 17:51 | 50.88988 | 0.37251 | 11276 ft | 298 kts | 309° |
| 2026-05-05 17:52 | 50.90264 | 0.34714 | 10801 ft | 289 kts | 308° |
| 2026-05-05 17:52 | 50.91191 | 0.31891 | 10516 ft | 292 kts | 286° |
| 2026-05-05 17:52 | 50.91623 | 0.28822 | 10288 ft | 285 kts | 282° |
| 2026-05-05 17:52 | 50.91977 | 0.25774 | 10090 ft | 277 kts | 281° |
| 2026-05-05 17:53 | 50.92319 | 0.22809 | 9885 ft | 270 kts | 281° |
| 2026-05-05 17:53 | 50.92650 | 0.19918 | 9668 ft | 263 kts | 281° |
| 2026-05-05 17:53 | 50.92958 | 0.17101 | 9450 ft | 256 kts | 281° |
| 2026-05-05 17:53 | 50.93251 | 0.14362 | 9232 ft | 250 kts | 281° |
| 2026-05-05 17:54 | 50.93525 | 0.11647 | 9010 ft | 248 kts | 281° |
| 2026-05-05 17:54 | 50.93788 | 0.08951 | 8809 ft | 247 kts | 280° |
| 2026-05-05 17:54 | 50.94069 | 0.06258 | 8640 ft | 247 kts | 281° |
| 2026-05-05 17:54 | 50.94347 | 0.03573 | 8485 ft | 246 kts | 282° |
| 2026-05-05 17:55 | 50.94611 | 0.00892 | 8325 ft | 246 kts | 281° |
| 2026-05-05 17:55 | 50.94878 | -0.01753 | 8163 ft | 246 kts | 281° |
| 2026-05-05 17:55 | 50.95157 | -0.04415 | 7927 ft | 244 kts | 281° |
| 2026-05-05 17:55 | 50.95437 | -0.07069 | 7698 ft | 243 kts | 281° |
| 2026-05-05 17:56 | 50.95713 | -0.09710 | 7469 ft | 242 kts | 281° |
| 2026-05-05 17:56 | 50.95984 | -0.12341 | 7246 ft | 241 kts | 281° |
| 2026-05-05 17:56 | 50.96250 | -0.14963 | 7024 ft | 240 kts | 281° |
| 2026-05-05 17:56 | 50.96513 | -0.17575 | 6800 ft | 239 kts | 281° |
| 2026-05-05 17:57 | 50.96771 | -0.20143 | 6581 ft | 238 kts | 281° |
| 2026-05-05 17:57 | 50.97026 | -0.22735 | 6353 ft | 237 kts | 281° |
| 2026-05-05 17:57 | 50.97276 | -0.25312 | 6092 ft | 236 kts | 281° |
| 2026-05-05 17:57 | 50.97523 | -0.27855 | 5828 ft | 235 kts | 281° |
| 2026-05-05 17:58 | 50.97770 | -0.30419 | 5595 ft | 235 kts | 281° |
| 2026-05-05 17:58 | 50.98018 | -0.32983 | 5389 ft | 235 kts | 281° |
| 2026-05-05 17:58 | 50.98265 | -0.35544 | 5184 ft | 235 kts | 281° |
| 2026-05-05 17:58 | 50.98528 | -0.38091 | 4977 ft | 233 kts | 287° |
| 2026-05-05 17:59 | 50.99276 | -0.40275 | 4785 ft | 221 kts | 315° |
| 2026-05-05 17:59 | 51.00361 | -0.41928 | 4623 ft | 212 kts | 320° |
| 2026-05-05 17:59 | 51.01454 | -0.43456 | 4437 ft | 207 kts | 321° |
| 2026-05-05 17:59 | 51.02541 | -0.44953 | 4254 ft | 206 kts | 321° |
| 2026-05-05 18:00 | 51.03625 | -0.46442 | 4082 ft | 205 kts | 321° |
| 2026-05-05 18:00 | 51.04668 | -0.47886 | 3987 ft | 197 kts | 321° |
| 2026-05-05 18:00 | 51.05728 | -0.49158 | 3902 ft | 186 kts | 337° |
| 2026-05-05 18:00 | 51.06939 | -0.49707 | 3820 ft | 181 kts | 4° |
| 2026-05-05 18:01 | 51.08096 | -0.49010 | 3756 ft | 180 kts | 38° |
| 2026-05-05 18:01 | 51.09017 | -0.47642 | 3704 ft | 182 kts | 45° |
| 2026-05-05 18:01 | 51.09886 | -0.46180 | 3493 ft | 181 kts | 46° |
| 2026-05-05 18:01 | 51.10740 | -0.44711 | 3284 ft | 181 kts | 46° |
| 2026-05-05 18:02 | 51.11441 | -0.43067 | 3061 ft | 182 kts | 69° |
| 2026-05-05 18:02 | 51.11741 | -0.41117 | 2829 ft | 181 kts | 76° |
| 2026-05-05 18:02 | 51.12009 | -0.39188 | 2583 ft | 176 kts | 76° |
| 2026-05-05 18:02 | 51.12272 | -0.37307 | 2359 ft | 172 kts | 76° |
| 2026-05-05 18:03 | 51.12531 | -0.35456 | 2118 ft | 170 kts | 76° |
| 2026-05-05 18:03 | 51.12780 | -0.33672 | 1893 ft | 164 kts | 77° |
| 2026-05-05 18:03 | 51.13023 | -0.31927 | 1680 ft | 159 kts | 77° |
| 2026-05-05 18:03 | 51.13260 | -0.30225 | 1465 ft | 157 kts | 78° |
| 2026-05-05 18:04 | 51.13494 | -0.28546 | 1266 ft | 149 kts | 77° |
| 2026-05-05 18:04 | 51.13708 | -0.27003 | 1064 ft | 140 kts | 77° |
| 2026-05-05 18:04 | 51.13912 | -0.25542 | 857 ft | 131 kts | 78° |
| 2026-05-05 18:04 | 51.14109 | -0.24131 | 680 ft | 130 kts | 78° |
| 2026-05-05 18:05 | 51.14307 | -0.22752 | 490 ft | 129 kts | 77° |
| 2026-05-05 18:05 | 51.14496 | -0.21366 | 335 ft | 127 kts | 78° |
| 2026-05-05 18:05 | 51.14683 | -0.19997 | 218 ft | 124 kts | 78° |
| 2026-05-05 18:05 | 51.14842 | -0.18830 | 213 ft | 91 kts | 77° |
| 2026-05-05 18:06 | 51.14933 | -0.18175 | 209 ft | 48 kts | 76° |
| 2026-05-05 18:06 | 51.14993 | -0.17938 | 209 ft | 31 kts | 59° |
| 2026-05-05 18:06 | 51.15113 | -0.17757 | 205 ft | 6 kts | 351° |
| 2026-05-05 18:06 | 51.15131 | -0.17761 | 205 ft | 0 kts | 351° |
| 2026-05-05 18:07 | 51.15133 | -0.17762 | 205 ft | 0 kts | 351° |
| 2026-05-05 18:07 | 51.15142 | -0.17764 | 205 ft | 4 kts | 353° |
| 2026-05-05 18:07 | 51.15150 | -0.17765 | 205 ft | 0 kts | 353° |
| 2026-05-05 18:07 | 51.15151 | -0.17765 | 205 ft | 0 kts | 353° |
| 2026-05-05 18:09 | 51.15184 | -0.17771 | 209 ft | 11 kts | 354° |
| 2026-05-05 18:09 | 51.15240 | -0.17883 | 206 ft | 16 kts | 256° |
| 2026-05-05 18:09 | 51.15225 | -0.18065 | 204 ft | 15 kts | 294° |
| 2026-05-05 18:10 | 51.15299 | -0.18113 | 210 ft | 9 kts | 348° |
| 2026-05-05 18:10 | 51.15322 | -0.18121 | 211 ft | 0 kts | 348° |
| 2026-05-05 18:11 | 51.15327 | -0.18123 | 211 ft | 6 kts | 348° |
| 2026-05-05 18:11 | 51.15420 | -0.18155 | 207 ft | 14 kts | 346° |
| 2026-05-05 18:11 | 51.15520 | -0.18200 | 204 ft | 15 kts | 348° |
| 2026-05-05 18:11 | 51.15561 | -0.18213 | 207 ft | 0 kts | 348° |
| 2026-05-05 18:13 | 51.15580 | -0.18220 | 204 ft | 13 kts | 348° |
| 2026-05-05 18:13 | 51.15667 | -0.18192 | 204 ft | 14 kts | 74° |
| 2026-05-05 18:13 | 51.15689 | -0.18031 | 209 ft | 14 kts | 78° |
| 2026-05-05 18:13 | 51.15708 | -0.17886 | 213 ft | 12 kts | 78° |
| 2026-05-05 18:14 | 51.15700 | -0.17806 | 211 ft | 5 kts | 145° |
| 2026-05-05 18:14 | 51.15668 | -0.17793 | 214 ft | 4 kts | 167° |
| 2026-05-05 18:14 | 51.15656 | -0.17789 | 210 ft | 0 kts | 168° |
| 2026-05-05 18:14 | 51.15651 | -0.17787 | 208 ft | 0 kts | 168° |
| 2026-05-05 18:15 | 51.15650 | -0.17787 | 208 ft | 0 kts | 168° |